createdAt,value
2023-05-23T06:00:13.622Z,99.80
2023-05-23T06:02:43.214Z,99.80
2023-05-23T06:05:12.947Z,99.80
2023-05-23T06:07:41.133Z,99.80
2023-05-23T06:10:13.458Z,99.80
2023-05-23T06:12:41.508Z,99.80
2023-05-23T06:15:13.306Z,99.80
2023-05-23T06:17:41.457Z,99.80
2023-05-23T06:20:09.983Z,99.80
2023-05-23T06:22:38.176Z,99.80
2023-05-23T06:25:07.315Z,99.80
2023-05-23T06:27:35.396Z,99.80
2023-05-23T06:30:04.176Z,99.80
2023-05-23T06:32:33.856Z,99.80
2023-05-23T06:35:02.013Z,99.80
2023-05-23T06:37:30.056Z,99.80
2023-05-23T06:39:58.094Z,99.80
2023-05-23T06:42:26.177Z,99.80
2023-05-23T06:44:54.339Z,99.80
2023-05-23T06:47:23.317Z,99.80
2023-05-23T06:49:53.207Z,99.80
2023-05-23T06:53:38.018Z,99.80
2023-05-23T07:00:48.306Z,99.80
2023-05-23T07:03:33.172Z,99.80
2023-05-23T07:06:02.933Z,99.80
2023-05-23T07:08:31.819Z,99.80
2023-05-23T07:11:00.735Z,99.80
2023-05-23T07:13:28.979Z,99.80
2023-05-23T07:15:57.401Z,99.80
2023-05-23T07:18:25.990Z,99.80
2023-05-23T07:20:54.627Z,99.80
2023-05-23T07:23:25.853Z,99.80
2023-05-23T07:26:01.954Z,99.80
2023-05-23T07:28:31.065Z,99.80
2023-05-23T07:30:59.263Z,99.80
2023-05-23T07:33:28.833Z,99.80
2023-05-23T07:35:58.797Z,99.80
2023-05-23T07:38:29.262Z,99.80
2023-05-23T07:41:10.044Z,99.80
2023-05-23T07:43:41.453Z,99.80
2023-05-23T07:46:09.705Z,99.80
2023-05-23T07:48:38.316Z,99.80
2023-05-23T07:51:07.113Z,99.80
2023-05-23T07:53:40.032Z,99.80
2023-05-23T07:56:08.731Z,99.80
2023-05-23T07:58:37.319Z,99.80
2023-05-23T08:01:06.140Z,99.80
2023-05-23T08:03:34.734Z,99.80
2023-05-23T08:06:02.986Z,99.80
2023-05-23T08:08:31.841Z,99.80
2023-05-23T08:11:02.443Z,99.80
2023-05-23T08:13:31.606Z,99.80
2023-05-23T08:15:59.686Z,99.80
2023-05-23T08:18:33.418Z,99.80
2023-05-23T08:21:03.321Z,99.80
2023-05-23T08:23:32.513Z,99.80
2023-05-23T08:26:02.197Z,99.80
2023-05-23T08:28:34.784Z,99.80
2023-05-23T08:31:03.734Z,99.80
2023-05-23T08:33:31.871Z,99.80
2023-05-23T08:36:00.265Z,99.80
2023-05-23T08:38:28.337Z,99.80
2023-05-23T08:41:01.165Z,99.80
2023-05-23T08:43:33.789Z,99.80
2023-05-23T08:46:02.428Z,99.80
2023-05-23T08:48:32.073Z,99.80
2023-05-23T08:51:00.832Z,99.80
2023-05-23T08:53:30.312Z,99.80
2023-05-23T15:39:00.052Z,96.90
2023-05-23T15:41:28.155Z,97.80
2023-05-23T15:43:56.486Z,99.50
2023-05-23T15:46:24.560Z,99.80
2023-05-23T15:48:52.596Z,99.80
2023-05-23T15:51:21.074Z,99.80
2023-05-23T15:56:21.595Z,99.80
2023-05-23T15:58:49.697Z,99.80
2023-05-23T16:01:17.741Z,99.80
2023-05-23T16:03:46.648Z,99.80
2023-05-23T16:06:14.737Z,99.80
2023-05-23T16:08:42.881Z,99.80
2023-05-23T16:11:11.210Z,99.80
2023-05-23T16:13:40.613Z,99.80
2023-05-23T16:16:08.964Z,99.80
2023-05-23T16:18:37.253Z,99.80
2023-05-23T16:21:06.895Z,99.80
2023-05-23T16:23:34.846Z,99.80
2023-05-23T16:26:03.571Z,98.70
2023-05-23T16:28:31.658Z,98.70
2023-05-23T16:31:01.075Z,99.00
2023-05-23T16:33:29.214Z,99.80
2023-05-23T16:35:57.228Z,98.60
2023-05-23T16:38:25.693Z,96.80
2023-05-23T16:40:56.562Z,96.90
2023-05-23T16:43:25.038Z,96.80
2023-05-23T16:45:53.140Z,97.30
2023-05-23T16:48:22.633Z,97.90
2023-05-23T16:50:50.735Z,98.20
2023-05-23T16:53:18.783Z,98.30
2023-05-23T16:55:49.190Z,98.10
2023-05-23T16:58:21.171Z,98.60
2023-05-23T17:00:49.686Z,96.70
2023-05-23T17:03:17.690Z,95.80
2023-05-23T17:05:47.084Z,95.20
2023-05-23T17:08:14.969Z,91.80
2023-05-23T17:10:43.239Z,91.50
2023-05-23T17:13:11.423Z,90.90
2023-05-23T17:15:39.484Z,90.20
2023-05-23T17:18:08.097Z,88.70
2023-05-23T17:20:36.063Z,89.90
2023-05-23T17:23:05.964Z,90.50
2023-05-23T17:25:33.856Z,91.90
2023-05-23T17:28:01.997Z,93.90
2023-05-23T17:30:29.905Z,95.10
2023-05-23T17:32:57.893Z,96.10
2023-05-23T17:35:26.139Z,95.20
2023-05-23T17:37:57.591Z,94.40
2023-05-23T17:40:27.114Z,92.90
2023-05-23T17:42:55.107Z,92.90
2023-05-23T17:45:23.257Z,92.10
2023-05-23T17:47:51.423Z,93.50
2023-05-23T17:50:19.724Z,95.00
2023-05-23T17:52:50.543Z,96.00
2023-05-23T17:55:18.707Z,95.80
2023-05-23T17:57:48.089Z,98.00
2023-05-23T18:00:17.417Z,99.60
2023-05-23T18:02:45.766Z,99.00
2023-05-23T18:05:13.763Z,99.20
2023-05-23T18:07:41.723Z,99.70
2023-05-23T18:10:10.447Z,99.80
2023-05-23T18:12:38.370Z,99.80
2023-05-23T18:15:09.626Z,99.80
2023-05-23T18:17:37.687Z,99.80
2023-05-23T18:20:07.452Z,99.80
2023-05-23T18:22:35.396Z,99.80
2023-05-23T18:25:03.760Z,99.80
2023-05-23T18:27:31.912Z,99.80
2023-05-23T18:29:59.884Z,99.80
2023-05-23T18:32:29.311Z,99.80
2023-05-23T18:34:57.237Z,99.80
2023-05-23T18:37:25.185Z,99.80
2023-05-23T18:39:57.884Z,99.80
2023-05-23T18:42:25.878Z,99.80
2023-05-23T18:44:53.880Z,99.80
2023-05-23T18:47:22.256Z,99.80
2023-05-23T18:49:52.087Z,99.80
2023-05-23T18:52:20.110Z,99.80
2023-05-23T18:54:50.782Z,99.80
2023-05-23T18:57:20.330Z,99.80
2023-05-23T18:59:48.952Z,99.80
2023-05-23T19:02:17.090Z,99.80
2023-05-23T19:04:45.083Z,99.80
2023-05-23T19:07:16.222Z,99.80
2023-05-23T19:09:47.551Z,99.80
2023-05-23T19:12:15.521Z,99.80
2023-05-23T19:14:43.531Z,99.80
2023-05-23T19:17:12.460Z,99.80
2023-05-23T19:19:40.713Z,99.80
2023-05-23T19:22:09.984Z,99.80
2023-05-23T19:24:39.535Z,99.80
2023-05-23T19:27:07.736Z,99.80
2023-05-23T19:29:35.907Z,99.80
2023-05-23T19:32:03.922Z,99.80
2023-05-23T19:34:32.954Z,99.80
2023-05-23T19:37:01.066Z,99.80
2023-05-23T19:39:29.029Z,99.80
2023-05-23T19:41:58.463Z,99.80
2023-05-23T19:44:26.423Z,99.80
2023-05-23T19:46:54.436Z,99.80
2023-05-23T19:49:22.478Z,99.80
2023-05-23T19:51:50.646Z,99.80
2023-05-23T19:54:18.758Z,99.80
2023-05-23T19:59:16.465Z,99.80
2023-05-23T20:01:44.447Z,99.80
2023-05-23T20:04:14.334Z,99.80
2023-05-23T20:06:42.733Z,99.80
2023-05-23T20:09:20.807Z,99.80
2023-05-23T20:11:48.841Z,99.80
2023-05-23T20:14:18.426Z,99.80
2023-05-23T20:16:48.955Z,99.80
2023-05-23T20:19:17.760Z,99.80
2023-05-23T20:21:46.240Z,99.80
2023-05-23T20:24:14.942Z,99.80
2023-05-23T20:26:59.067Z,99.80
2023-05-23T20:29:30.635Z,99.80
2023-05-23T20:32:03.933Z,99.80
2023-05-23T20:34:32.059Z,99.80
2023-05-23T20:37:01.488Z,99.80
2023-05-23T20:39:29.633Z,99.80
2023-05-23T20:41:57.880Z,99.80
2023-05-23T20:44:26.794Z,99.80
2023-05-23T20:47:03.817Z,99.80
2023-05-23T20:49:32.322Z,99.80
2023-05-23T20:52:00.285Z,99.80
2023-05-23T20:54:28.499Z,99.80
2023-05-23T20:56:56.448Z,99.80
2023-05-23T20:59:25.806Z,99.80
2023-05-23T22:06:15.801Z,99.80
2023-05-23T22:08:48.578Z,99.80
2023-05-23T22:11:16.785Z,99.80
2023-05-23T22:13:44.813Z,99.80
2023-05-23T22:16:12.775Z,99.80
2023-05-23T22:18:51.403Z,99.80
2023-05-23T22:21:21.572Z,99.80
2023-05-23T22:23:49.534Z,99.80
2023-05-23T22:26:17.758Z,99.80
2023-05-23T22:28:46.130Z,99.80
2023-05-23T22:31:14.650Z,99.80
2023-05-23T22:33:42.822Z,99.80
2023-05-23T22:36:11.269Z,99.80
2023-05-23T22:38:40.654Z,99.80
2023-05-23T22:41:08.666Z,99.80
2023-05-23T22:43:37.219Z,99.80
2023-05-23T22:46:05.335Z,99.80
2023-05-23T22:48:34.293Z,99.80
2023-05-23T22:51:02.793Z,99.80
2023-05-23T22:53:31.243Z,99.80
2023-05-23T22:56:00.662Z,99.80
2023-05-23T22:58:28.922Z,99.80
2023-05-23T23:00:56.909Z,99.80
2023-05-23T23:03:25.076Z,99.80
2023-05-23T23:05:53.137Z,99.80
2023-05-23T23:08:21.807Z,99.80
2023-05-23T23:10:49.851Z,99.80
2023-05-23T23:13:19.359Z,99.80
2023-05-23T23:15:49.698Z,99.80
2023-05-23T23:18:18.913Z,99.80
2023-05-23T23:20:48.337Z,99.80
2023-05-23T23:23:16.373Z,99.80
2023-05-23T23:25:45.055Z,99.80
2023-05-23T23:28:13.135Z,99.80
2023-05-23T23:30:43.727Z,99.80
2023-05-23T23:33:11.957Z,99.80
2023-05-23T23:35:40.077Z,99.80
2023-05-23T23:38:08.040Z,99.80
2023-05-23T23:40:36.257Z,99.80
2023-05-23T23:43:04.321Z,99.80
2023-05-23T23:45:32.367Z,99.80
2023-05-23T23:48:01.737Z,99.80
2023-05-23T23:50:31.339Z,99.80
2023-05-23T23:52:59.501Z,99.80
2023-05-23T23:55:27.530Z,99.80
2023-05-23T23:57:55.662Z,99.80
